Terminal Aerodrome Forecast
Issued by NWS Charleston, WV

Current Version | Previous Version | Text Only | Print | Product List | Glossary Off
Versions: 1 2 3 4 5 6 7 8 9 10 11 12 13 14 15 16 17 18 19 20 21 22 23 24

000
FTUS41 KRLX 032300
TAFPKB
TAF
KPKB 032327Z 0400/0424 20009KT 4SM -RA BR OVC023
     FM040300 22008KT 2SM -RA BR OVC008
     FM040800 28006KT 1SM -RA BR OVC003
     FM042100 32007KT 3/4SM -RASNPL BR OVC003
     FM042200 33006KT 3/4SM -SNPL BR OVC003
     FM042300 35006KT 3/4SM -SN BR OVC003=

USA.gov is the U.S. government's official web portal to all federal, state and local government web resources and services.